createdAt,value
2018-04-18T00:00:08.997Z,84.31
2018-04-18T00:02:36.507Z,84.61
2018-04-18T00:05:04.011Z,84.70
2018-04-18T00:07:31.526Z,84.59
2018-04-18T00:09:59.074Z,84.98
2018-04-18T00:12:26.618Z,85.08
2018-04-18T00:14:54.126Z,85.67
2018-04-18T00:17:21.624Z,86.02
2018-04-18T00:19:49.162Z,86.11
2018-04-18T00:22:16.662Z,86.27
2018-04-18T00:24:44.186Z,86.63
2018-04-18T00:27:11.694Z,86.56
2018-04-18T00:29:39.186Z,86.61
2018-04-18T00:32:06.712Z,85.88
2018-04-18T00:34:34.211Z,86.24
2018-04-18T00:37:01.742Z,86.60
2018-04-18T00:39:29.233Z,87.11
2018-04-18T00:41:56.730Z,87.19
2018-04-18T00:44:24.245Z,86.76
2018-04-18T00:46:51.729Z,86.96
2018-04-18T00:49:19.237Z,86.66
2018-04-18T00:51:46.827Z,86.73
2018-04-18T00:54:14.738Z,87.09
2018-04-18T00:56:42.297Z,87.11
2018-04-18T00:59:09.799Z,87.31
2018-04-18T01:01:37.336Z,87.39
2018-04-18T01:04:04.834Z,87.43
2018-04-18T01:06:32.324Z,88.12
2018-04-18T01:08:59.859Z,88.28
2018-04-18T01:11:27.353Z,88.54
2018-04-18T01:13:54.845Z,88.67
2018-04-18T01:16:22.384Z,89.29
2018-04-18T01:18:49.880Z,88.97
2018-04-18T01:21:18.296Z,89.03
2018-04-18T01:23:45.819Z,88.78
2018-04-18T01:26:13.327Z,88.34
2018-04-18T01:28:40.835Z,88.18
2018-04-18T01:31:08.356Z,87.62
2018-04-18T01:33:35.860Z,88.35
2018-04-18T01:36:03.357Z,88.55
2018-04-18T01:38:30.877Z,88.14
2018-04-18T01:40:58.435Z,88.02
2018-04-18T01:43:25.933Z,87.76
2018-04-18T01:45:53.457Z,87.90
2018-04-18T01:48:20.948Z,88.34
2018-04-18T01:50:48.462Z,88.74
2018-04-18T01:53:15.991Z,88.30
2018-04-18T01:55:43.487Z,87.69
2018-04-18T01:58:10.974Z,88.25
2018-04-18T02:00:38.528Z,89.06
2018-04-18T02:03:06.063Z,89.67
2018-04-18T02:05:33.629Z,89.36
2018-04-18T02:08:01.146Z,89.87
2018-04-18T02:10:28.643Z,90.37
2018-04-18T02:12:56.833Z,90.69
2018-04-18T02:15:24.388Z,90.69
2018-04-18T02:17:51.882Z,90.61
2018-04-18T02:20:19.377Z,90.22
2018-04-18T02:22:46.893Z,89.87
2018-04-18T02:25:14.384Z,89.38
2018-04-18T02:27:41.916Z,89.67
2018-04-18T02:30:09.514Z,90.06
2018-04-18T02:32:36.949Z,90.07
2018-04-18T02:35:04.450Z,90.27
2018-04-18T02:37:31.982Z,90.48
2018-04-18T02:39:59.482Z,90.42
2018-04-18T02:42:26.982Z,90.41
2018-04-18T02:44:54.498Z,90.65
2018-04-18T02:47:21.996Z,90.57
2018-04-18T02:49:49.506Z,90.82
2018-04-18T02:52:17.036Z,90.60
2018-04-18T02:54:44.541Z,90.26
2018-04-18T02:57:12.042Z,89.83
2018-04-18T02:59:39.574Z,89.84
2018-04-18T03:02:07.074Z,89.97
2018-04-18T03:04:34.571Z,89.90
2018-04-18T03:07:02.107Z,90.26
2018-04-18T03:09:29.605Z,90.42
2018-04-18T03:11:57.106Z,90.11
2018-04-18T03:14:24.625Z,89.89
2018-04-18T03:16:52.121Z,90.29
2018-04-18T03:19:19.612Z,90.02
2018-04-18T03:21:47.184Z,89.61
2018-04-18T03:24:14.672Z,89.47
2018-04-18T03:26:42.156Z,89.48
2018-04-18T03:29:09.734Z,89.15
2018-04-18T03:31:37.234Z,88.99
2018-04-18T03:34:04.721Z,89.23
2018-04-18T03:36:32.239Z,89.56
2018-04-18T03:38:59.728Z,90.07
2018-04-18T03:41:27.217Z,90.05
2018-04-18T03:43:54.746Z,90.20
2018-04-18T03:46:22.234Z,90.06
2018-04-18T03:48:49.742Z,90.16
2018-04-18T03:51:17.276Z,90.21
2018-04-18T03:53:44.992Z,89.96
2018-04-18T03:56:12.494Z,90.38
2018-04-18T03:58:40.032Z,90.87
2018-04-18T04:01:07.525Z,90.52
2018-04-18T04:03:35.013Z,90.29
2018-04-18T04:06:03.542Z,89.96
2018-04-18T04:08:31.034Z,89.97
2018-04-18T04:10:58.528Z,90.22
2018-04-18T04:13:26.045Z,90.19
2018-04-18T04:15:53.547Z,90.68
2018-04-18T04:18:32.950Z,90.31
2018-04-18T04:21:13.181Z,90.66
2018-04-18T04:23:52.499Z,90.78
2018-04-18T04:26:20.009Z,90.65
2018-04-18T04:28:47.496Z,90.50
2018-04-18T04:31:15.018Z,89.99
2018-04-18T04:33:42.574Z,89.05
2018-04-18T04:36:10.072Z,86.33
2018-04-18T04:38:37.597Z,85.25
2018-04-18T04:41:05.099Z,84.98
2018-04-18T04:43:32.589Z,84.87
2018-04-18T04:46:00.126Z,85.90
2018-04-18T04:48:27.630Z,85.64
2018-04-18T04:50:55.146Z,84.66
2018-04-18T04:53:22.661Z,84.43
2018-04-18T04:55:50.156Z,84.24
2018-04-18T04:58:17.649Z,83.28
2018-04-18T05:00:45.169Z,83.24
2018-04-18T05:03:12.682Z,83.20
2018-04-18T05:05:40.185Z,82.95
2018-04-18T05:08:07.705Z,82.40
2018-04-18T05:10:35.202Z,82.16
2018-04-18T05:13:02.690Z,81.87
2018-04-18T05:15:30.208Z,82.08
2018-04-18T05:17:57.703Z,81.80
2018-04-18T05:20:25.202Z,81.09
2018-04-18T05:22:52.729Z,80.17
2018-04-18T05:25:20.229Z,79.26
2018-04-18T05:27:47.766Z,77.48
2018-04-18T05:30:15.301Z,76.54
2018-04-18T05:32:42.799Z,75.84
2018-04-18T05:35:10.300Z,70.47
2018-04-18T05:37:37.945Z,65.49
2018-04-18T05:40:05.449Z,61.00
2018-04-18T05:42:32.961Z,55.96
2018-04-18T05:45:00.498Z,54.15
2018-04-18T05:47:28.018Z,51.95
2018-04-18T05:49:55.516Z,48.85
2018-04-18T05:52:23.058Z,45.91
2018-04-18T05:54:51.134Z,44.79
2018-04-18T05:57:18.620Z,41.93
2018-04-18T05:59:46.139Z,41.86
2018-04-18T06:02:13.631Z,41.88
2018-04-18T06:04:41.127Z,41.08
2018-04-18T06:07:08.657Z,41.04
2018-04-18T06:09:36.172Z,41.41
2018-04-18T06:12:03.666Z,42.16
2018-04-18T06:14:31.193Z,42.11
2018-04-18T06:16:58.689Z,45.05
2018-04-18T06:19:26.461Z,47.57
2018-04-18T06:21:54.006Z,46.50
2018-04-18T06:24:21.505Z,45.16
2018-04-18T06:26:49.009Z,45.48
2018-04-18T06:29:16.529Z,45.67
2018-04-18T06:31:44.028Z,42.79
2018-04-18T06:34:11.553Z,42.72
2018-04-18T06:36:39.077Z,41.45
2018-04-18T06:39:06.577Z,41.31
2018-04-18T06:41:34.075Z,42.45
2018-04-18T06:44:01.591Z,43.26
2018-04-18T06:46:29.087Z,42.77
2018-04-18T06:48:56.580Z,42.22
2018-04-18T06:51:24.113Z,40.08
2018-04-18T06:53:51.615Z,38.41
2018-04-18T06:56:19.150Z,38.54
2018-04-18T06:58:47.657Z,38.25
2018-04-18T07:01:15.170Z,39.11
2018-04-18T07:03:42.661Z,37.83
2018-04-18T07:06:11.141Z,38.82
2018-04-18T07:08:38.744Z,37.48
2018-04-18T07:11:06.239Z,39.21
2018-04-18T07:13:33.755Z,39.08
2018-04-18T07:16:01.246Z,38.32
2018-04-18T07:18:28.728Z,37.75
2018-04-18T07:20:56.243Z,35.96
2018-04-18T07:23:23.737Z,35.81
2018-04-18T07:25:51.231Z,33.25
2018-04-18T07:28:18.747Z,33.14
2018-04-18T07:30:46.241Z,33.18
2018-04-18T07:33:13.721Z,31.44
2018-04-18T07:35:41.250Z,32.32
2018-04-18T07:38:08.735Z,32.15
2018-04-18T07:40:36.235Z,30.12
2018-04-18T07:43:03.747Z,29.73
2018-04-18T07:45:31.235Z,30.24
2018-04-18T07:47:58.733Z,29.39
2018-04-18T07:50:26.249Z,30.21
2018-04-18T07:52:53.741Z,31.57
2018-04-18T07:55:21.241Z,29.91
2018-04-18T07:57:48.766Z,31.86
2018-04-18T08:00:16.262Z,31.13
2018-04-18T08:02:43.750Z,29.07
2018-04-18T08:05:11.275Z,28.66
2018-04-18T08:07:38.765Z,26.78
2018-04-18T08:10:07.137Z,26.87
2018-04-18T08:12:34.695Z,27.66
2018-04-18T08:15:02.178Z,27.43
2018-04-18T08:17:29.664Z,28.65
2018-04-18T08:19:57.193Z,28.70
2018-04-18T08:22:24.912Z,28.36
2018-04-18T08:24:52.411Z,27.63
2018-04-18T08:27:19.991Z,26.22
2018-04-18T08:29:47.488Z,25.77
2018-04-18T08:32:14.983Z,26.76
2018-04-18T08:34:42.509Z,26.44
2018-04-18T08:37:10.003Z,29.21
2018-04-18T08:39:37.506Z,28.93
2018-04-18T08:42:05.029Z,28.81
2018-04-18T08:44:32.535Z,28.46
2018-04-18T08:47:00.042Z,28.97
2018-04-18T08:49:27.563Z,27.96
2018-04-18T08:51:55.062Z,28.03
2018-04-18T08:54:22.563Z,28.20
2018-04-18T08:56:50.090Z,28.71
2018-04-18T08:59:17.596Z,28.54
2018-04-18T09:01:45.096Z,28.79
2018-04-18T09:04:12.626Z,29.15
2018-04-18T09:06:40.125Z,27.36
2018-04-18T09:09:07.625Z,27.00
2018-04-18T09:11:35.158Z,27.99
2018-04-18T09:14:02.660Z,25.06
2018-04-18T09:16:30.161Z,28.57
2018-04-18T09:18:57.709Z,27.08
2018-04-18T09:21:25.218Z,27.56
2018-04-18T09:23:52.722Z,26.85
2018-04-18T09:26:20.249Z,27.20
2018-04-18T09:28:47.750Z,26.40
2018-04-18T09:31:15.256Z,28.39
2018-04-18T09:33:42.802Z,24.62
2018-04-18T09:36:10.306Z,25.50
2018-04-18T09:38:37.800Z,24.87
2018-04-18T09:41:05.320Z,26.64
2018-04-18T09:43:32.838Z,27.27
2018-04-18T09:46:00.345Z,28.24
2018-04-18T09:48:27.863Z,26.35
2018-04-18T09:50:55.366Z,25.74
2018-04-18T09:53:22.853Z,25.75
2018-04-18T09:55:50.384Z,24.18
2018-04-18T09:58:17.901Z,25.70
2018-04-18T10:00:51.053Z,24.61
2018-04-18T10:03:18.558Z,24.23
2018-04-18T10:05:46.044Z,25.20
2018-04-18T10:08:13.570Z,25.11
2018-04-18T10:10:41.055Z,24.84
2018-04-18T10:13:08.553Z,24.11
2018-04-18T10:15:36.072Z,24.51
2018-04-18T10:18:03.567Z,24.12
2018-04-18T10:20:31.050Z,24.82
2018-04-18T10:22:58.594Z,25.33
2018-04-18T10:25:26.083Z,24.88
2018-04-18T10:27:53.581Z,23.12
2018-04-18T10:30:22.091Z,23.51
2018-04-18T10:32:49.582Z,23.59
2018-04-18T10:35:17.077Z,25.64
2018-04-18T10:37:44.595Z,25.85
2018-04-18T10:40:12.085Z,24.42
2018-04-18T10:42:39.578Z,22.16
2018-04-18T10:45:07.108Z,25.96
2018-04-18T10:47:34.610Z,25.17
2018-04-18T10:50:02.099Z,24.49
2018-04-18T10:52:29.621Z,26.38
2018-04-18T10:54:57.126Z,25.18
2018-04-18T10:57:24.622Z,25.88
2018-04-18T10:59:52.303Z,24.64
2018-04-18T11:02:19.793Z,26.98
2018-04-18T11:04:47.284Z,28.61
2018-04-18T11:07:14.805Z,27.90
2018-04-18T11:09:42.340Z,28.47
2018-04-18T11:12:09.848Z,29.44
2018-04-18T11:14:37.382Z,28.44
2018-04-18T11:17:04.878Z,30.44
2018-04-18T11:19:32.375Z,29.00
2018-04-18T11:21:59.894Z,29.52
2018-04-18T11:24:27.393Z,30.74
2018-04-18T11:26:54.901Z,29.17
2018-04-18T11:29:22.425Z,29.15
2018-04-18T11:31:49.914Z,28.46
2018-04-18T11:34:17.930Z,30.19
2018-04-18T11:36:45.457Z,32.17
2018-04-18T11:39:12.958Z,30.03
2018-04-18T11:41:40.453Z,30.17
2018-04-18T11:44:07.977Z,32.64
2018-04-18T11:46:35.471Z,30.42
2018-04-18T11:49:02.979Z,30.84
2018-04-18T11:51:30.506Z,30.69
2018-04-18T11:53:58.006Z,31.93
2018-04-18T11:56:25.562Z,30.77
2018-04-18T11:58:53.111Z,31.16
2018-04-18T12:01:20.642Z,30.64
2018-04-18T12:03:48.147Z,30.51
2018-04-18T12:06:15.673Z,29.66
2018-04-18T12:08:43.175Z,27.98
2018-04-18T12:11:10.681Z,31.80
2018-04-18T12:13:38.204Z,34.84
2018-04-18T12:16:05.694Z,33.81
2018-04-18T12:18:33.199Z,35.18
2018-04-18T12:21:00.744Z,35.13
2018-04-18T12:23:28.236Z,35.11
2018-04-18T12:25:55.732Z,34.85
2018-04-18T12:28:23.245Z,35.35
2018-04-18T12:30:50.807Z,35.39
2018-04-18T12:33:18.268Z,32.94
2018-04-18T12:35:45.793Z,33.46
2018-04-18T12:38:13.293Z,32.66
2018-04-18T12:40:40.798Z,33.04
2018-04-18T12:43:08.318Z,35.22
2018-04-18T12:45:35.853Z,34.80
2018-04-18T12:48:03.345Z,33.39
2018-04-18T12:50:30.984Z,33.89
2018-04-18T12:52:58.490Z,34.02
2018-04-18T12:55:25.981Z,33.30
2018-04-18T12:57:54.465Z,33.74
2018-04-18T13:00:21.966Z,32.10
2018-04-18T13:02:49.465Z,32.87
2018-04-18T13:05:16.993Z,33.58
2018-04-18T13:07:44.500Z,33.78
2018-04-18T13:10:11.997Z,33.05
2018-04-18T13:12:39.517Z,33.63
2018-04-18T13:15:07.014Z,34.34
2018-04-18T13:17:34.504Z,33.55
2018-04-18T13:20:02.038Z,32.98
2018-04-18T13:22:29.533Z,33.00
2018-04-18T13:24:57.024Z,33.51
2018-04-18T13:27:24.556Z,35.35
2018-04-18T13:29:52.077Z,33.71
2018-04-18T13:32:19.578Z,34.01
2018-04-18T13:34:47.143Z,34.15
2018-04-18T13:37:14.645Z,33.71
2018-04-18T13:39:42.146Z,32.97
2018-04-18T13:42:09.661Z,32.52
2018-04-18T13:44:37.155Z,33.38
2018-04-18T13:47:04.645Z,32.76
2018-04-18T13:49:32.169Z,32.17
2018-04-18T13:51:59.657Z,32.34
2018-04-18T13:54:27.154Z,32.11
2018-04-18T13:56:54.668Z,32.42
2018-04-18T13:59:22.221Z,31.86
2018-04-18T14:01:49.856Z,33.34
2018-04-18T14:04:17.401Z,32.03
2018-04-18T14:06:44.893Z,32.68
2018-04-18T14:09:12.391Z,32.70
2018-04-18T14:11:39.909Z,30.54
2018-04-18T14:14:07.405Z,31.52
2018-04-18T14:16:34.906Z,29.39
2018-04-18T14:19:02.427Z,30.98
2018-04-18T14:21:29.921Z,30.85
2018-04-18T14:23:57.530Z,31.33
2018-04-18T14:26:25.066Z,30.17
2018-04-18T14:28:52.554Z,32.59
2018-04-18T14:31:20.044Z,30.06
2018-04-18T14:33:47.590Z,29.92
2018-04-18T14:36:15.160Z,30.23
2018-04-18T14:38:43.666Z,30.42
2018-04-18T14:41:11.214Z,30.71
2018-04-18T14:43:38.706Z,31.67
2018-04-18T14:46:06.288Z,31.49
2018-04-18T14:48:33.807Z,30.37
2018-04-18T14:51:01.297Z,30.22
2018-04-18T14:53:28.789Z,30.30
2018-04-18T14:55:56.322Z,33.39
2018-04-18T14:58:23.809Z,30.54
2018-04-18T15:00:51.301Z,31.33
2018-04-18T15:03:18.831Z,32.64
2018-04-18T15:05:47.214Z,31.72
2018-04-18T15:08:14.701Z,31.12
2018-04-18T15:10:42.241Z,31.60
2018-04-18T15:13:09.729Z,30.44
2018-04-18T15:15:37.213Z,30.67
2018-04-18T15:18:04.758Z,30.86
2018-04-18T15:20:32.268Z,29.94
2018-04-18T15:22:59.757Z,29.81
2018-04-18T15:25:27.272Z,30.86
2018-04-18T15:27:54.780Z,30.64
2018-04-18T15:30:22.269Z,30.42
2018-04-18T15:32:49.792Z,29.71
2018-04-18T15:35:17.294Z,29.65
2018-04-18T15:37:44.803Z,31.22
2018-04-18T15:40:12.329Z,30.48
2018-04-18T15:42:39.830Z,30.18
2018-04-18T15:45:07.322Z,30.67
2018-04-18T15:47:34.839Z,31.25
2018-04-18T15:50:02.334Z,30.37
2018-04-18T15:52:29.870Z,31.52
2018-04-18T15:54:57.395Z,30.48
2018-04-18T15:57:24.913Z,32.93
2018-04-18T15:59:52.397Z,31.69
2018-04-18T16:02:19.905Z,30.76
2018-04-18T16:04:47.393Z,31.49
2018-04-18T16:07:14.876Z,32.35
2018-04-18T16:09:42.394Z,31.37
2018-04-18T16:12:09.900Z,31.76
2018-04-18T16:14:37.397Z,32.52
2018-04-18T16:17:04.910Z,32.38
2018-04-18T16:19:32.425Z,32.90
2018-04-18T16:21:59.913Z,32.46
2018-04-18T16:24:27.451Z,33.71
2018-04-18T16:26:54.950Z,32.44
2018-04-18T16:29:34.338Z,33.70
2018-04-18T16:32:01.823Z,33.88
2018-04-18T16:34:29.317Z,32.97
2018-04-18T16:36:56.833Z,33.56
2018-04-18T16:39:24.327Z,32.63
2018-04-18T16:41:51.819Z,32.72
2018-04-18T16:44:20.390Z,34.90
2018-04-18T16:46:47.887Z,33.55
2018-04-18T16:49:15.382Z,33.27
2018-04-18T16:51:42.896Z,33.86
2018-04-18T16:54:10.385Z,33.96
2018-04-18T16:56:37.878Z,35.70
2018-04-18T16:59:05.392Z,33.71
2018-04-18T17:01:32.881Z,35.07
2018-04-18T17:04:00.404Z,35.20
2018-04-18T17:06:28.024Z,35.67
2018-04-18T17:08:55.517Z,35.16
2018-04-18T17:11:23.006Z,35.54
2018-04-18T17:13:50.540Z,35.71
2018-04-18T17:16:18.034Z,37.55
2018-04-18T17:18:45.518Z,36.47
2018-04-18T17:21:13.056Z,36.08
2018-04-18T17:23:40.550Z,37.91
2018-04-18T17:26:08.044Z,37.43
2018-04-18T17:28:35.561Z,37.67
2018-04-18T17:31:03.046Z,37.59
2018-04-18T17:33:30.557Z,38.53
2018-04-18T17:35:58.078Z,39.36
2018-04-18T17:38:25.583Z,39.95
2018-04-18T17:40:53.076Z,39.68
2018-04-18T17:43:20.624Z,40.11
2018-04-18T17:45:48.122Z,40.73
2018-04-18T17:48:15.639Z,41.20
2018-04-18T17:50:43.171Z,41.58
2018-04-18T17:53:10.668Z,41.88
2018-04-18T17:55:38.209Z,42.03
2018-04-18T17:58:06.673Z,41.95
2018-04-18T18:00:34.190Z,42.42
2018-04-18T18:03:01.689Z,42.85
2018-04-18T18:05:29.225Z,43.10
2018-04-18T18:07:56.726Z,43.44
2018-04-18T18:10:24.230Z,43.65
2018-04-18T18:12:51.745Z,44.05
2018-04-18T18:15:19.295Z,44.26
2018-04-18T18:17:46.782Z,44.70
2018-04-18T18:20:14.298Z,45.05
2018-04-18T18:22:41.802Z,45.41
2018-04-18T18:25:09.289Z,45.69
2018-04-18T18:27:36.863Z,45.88
2018-04-18T18:30:04.362Z,45.55
2018-04-18T18:32:31.865Z,46.40
2018-04-18T18:34:59.406Z,46.42
2018-04-18T18:37:26.893Z,47.41
2018-04-18T18:39:54.381Z,47.20
2018-04-18T18:42:21.888Z,47.72
2018-04-18T18:44:49.381Z,47.79
2018-04-18T18:47:16.865Z,47.70
2018-04-18T18:49:44.386Z,48.01
2018-04-18T18:52:11.952Z,48.17
2018-04-18T18:54:39.449Z,49.04
2018-04-18T18:57:07.020Z,49.21
2018-04-18T18:59:34.526Z,49.17
2018-04-18T19:02:02.031Z,50.66
2018-04-18T19:04:29.571Z,50.70
2018-04-18T19:06:57.082Z,50.07
2018-04-18T19:09:24.564Z,50.21
2018-04-18T19:11:52.082Z,50.40
2018-04-18T19:14:19.582Z,50.41
2018-04-18T19:16:47.128Z,50.83
2018-04-18T19:19:15.606Z,51.11
2018-04-18T19:21:43.169Z,51.49
2018-04-18T19:24:10.658Z,51.89
2018-04-18T19:26:38.173Z,52.79
2018-04-18T19:29:05.661Z,52.76
2018-04-18T19:31:34.097Z,53.37
2018-04-18T19:34:01.613Z,53.42
2018-04-18T19:36:29.108Z,53.51
2018-04-18T19:38:56.597Z,53.47
2018-04-18T19:41:24.133Z,53.78
2018-04-18T19:43:52.545Z,53.89
2018-04-18T19:46:20.049Z,54.57
2018-04-18T19:48:47.581Z,55.54
2018-04-18T19:51:15.073Z,56.11
2018-04-18T19:53:42.695Z,56.62
2018-04-18T19:56:10.275Z,56.33
2018-04-18T19:58:37.857Z,55.88
2018-04-18T20:01:05.368Z,56.65
2018-04-18T20:03:32.876Z,57.44
2018-04-18T20:06:00.559Z,57.95
2018-04-18T20:08:28.460Z,57.65
2018-04-18T20:10:56.535Z,57.37
2018-04-18T20:13:24.272Z,57.61
2018-04-18T20:15:52.218Z,57.52
2018-04-18T20:18:20.901Z,57.54
2018-04-18T20:20:48.607Z,58.03
2018-04-18T20:23:17.182Z,58.00
2018-04-18T20:25:44.732Z,57.67
2018-04-18T20:28:12.247Z,57.84
2018-04-18T20:30:39.774Z,57.76
2018-04-18T20:33:07.299Z,57.99
2018-04-18T20:35:34.807Z,58.51
2018-04-18T20:38:02.325Z,59.33
2018-04-18T20:40:29.870Z,59.35
2018-04-18T20:42:58.242Z,59.49
2018-04-18T20:45:25.753Z,59.25
2018-04-18T20:47:53.279Z,59.01
2018-04-18T20:50:20.777Z,59.10
2018-04-18T20:52:48.268Z,59.17
2018-04-18T20:55:15.822Z,59.44
2018-04-18T20:57:43.321Z,60.01
2018-04-18T21:00:10.878Z,59.83
2018-04-18T21:02:38.402Z,60.42
2018-04-18T21:05:05.902Z,61.00
2018-04-18T21:07:33.426Z,61.27
2018-04-18T21:10:00.960Z,61.37
2018-04-18T21:12:28.457Z,61.41
2018-04-18T21:14:55.941Z,61.35
2018-04-18T21:17:23.470Z,61.73
2018-04-18T21:19:50.958Z,61.31
2018-04-18T21:22:18.451Z,62.08
2018-04-18T21:24:45.978Z,62.09
2018-04-18T21:27:13.482Z,63.75
2018-04-18T21:29:40.992Z,64.63
2018-04-18T21:32:08.516Z,65.40
2018-04-18T21:34:36.014Z,65.64
2018-04-18T21:37:03.509Z,65.15
2018-04-18T21:39:31.028Z,64.86
2018-04-18T21:41:58.532Z,64.94
2018-04-18T21:44:26.035Z,64.87
2018-04-18T21:46:53.567Z,65.26
2018-04-18T21:49:21.067Z,66.95
2018-04-18T21:51:48.609Z,67.17
2018-04-18T21:54:16.137Z,67.34
2018-04-18T21:56:43.640Z,67.52
2018-04-18T21:59:11.142Z,66.91
2018-04-18T22:13:00.168Z,67.89
2018-04-18T22:15:27.666Z,67.91
2018-04-18T22:17:55.167Z,67.82
2018-04-18T22:20:22.686Z,68.17
2018-04-18T22:22:50.188Z,68.47
2018-04-18T22:25:17.694Z,69.47
2018-04-18T22:27:45.225Z,70.25
2018-04-18T22:30:24.332Z,70.05
2018-04-18T22:32:51.866Z,70.63
2018-04-18T22:35:19.366Z,71.45
2018-04-18T22:37:46.875Z,72.55
2018-04-18T22:40:14.405Z,72.59
2018-04-18T22:42:41.900Z,73.16
2018-04-18T22:45:09.408Z,73.37
2018-04-18T22:47:36.928Z,73.20
2018-04-18T22:50:04.436Z,73.32
2018-04-18T22:52:31.934Z,73.40
2018-04-18T22:54:59.476Z,73.29
2018-04-18T22:57:26.971Z,73.26
2018-04-18T22:59:54.471Z,73.87
2018-04-18T23:02:21.996Z,74.11
2018-04-18T23:04:49.507Z,74.21
2018-04-18T23:07:16.997Z,74.91
2018-04-18T23:09:44.530Z,75.04
2018-04-18T23:12:12.037Z,75.28
2018-04-18T23:14:39.533Z,75.72
2018-04-18T23:17:07.048Z,75.70
2018-04-18T23:19:34.561Z,76.04
2018-04-18T23:22:02.059Z,76.06
2018-04-18T23:24:29.598Z,75.82
2018-04-18T23:26:57.106Z,76.34
2018-04-18T23:29:24.628Z,76.20
2018-04-18T23:31:52.159Z,76.15
2018-04-18T23:34:19.676Z,75.94
2018-04-18T23:36:47.181Z,76.37
2018-04-18T23:39:14.720Z,76.11
2018-04-18T23:41:42.225Z,76.01
2018-04-18T23:44:09.727Z,76.90
2018-04-18T23:46:37.320Z,76.69
2018-04-18T23:49:04.818Z,76.81
2018-04-18T23:51:32.312Z,77.79
2018-04-18T23:53:59.833Z,78.25
2018-04-18T23:56:27.335Z,78.95
2018-04-18T23:58:54.825Z,79.21
